Time;durP1;ratioP1;P1;durP2;ratioP2;P2;SDS_P1;SDS_P2;PMS_P1;PMS_P2;Temp;Humidity;BMP_temperature;BMP_pressure;BME280_temperature;BME280_humidity;BME280_pressure;Samples;Min_cycle;Max_cycle;Signal;HPM_P1;HPM_P2
2022/03/03 00:02:05;;;;;;;72.00;23.70;;;-1.20;99.90;;;;;;5010324;28;20080;-83
2022/03/03 00:04:30;;;;;;;95.90;27.58;;;-1.20;99.90;;;;;;5008274;28;20026;-82
2022/03/03 00:06:56;;;;;;;96.45;29.60;;;-1.20;99.90;;;;;;5008936;28;20045;-82
2022/03/03 00:09:22;;;;;;;82.55;24.70;;;-1.10;99.90;;;;;;5011683;28;20034;-82
2022/03/03 00:11:48;;;;;;;64.15;21.45;;;-1.10;99.90;;;;;;5040025;28;20025;-84
2022/03/03 00:14:13;;;;;;;70.57;24.05;;;-1.20;99.90;;;;;;5026744;28;20036;-75
2022/03/03 00:16:39;;;;;;;75.28;25.02;;;-1.40;99.90;;;;;;5028179;28;20481;-82
2022/03/03 00:19:05;;;;;;;72.13;24.88;;;-1.40;99.90;;;;;;5026919;28;20083;-83
2022/03/03 00:21:31;;;;;;;88.13;27.35;;;-1.30;99.90;;;;;;5029444;28;20036;-83
2022/03/03 00:23:57;;;;;;;65.65;23.10;;;-1.40;99.90;;;;;;5027466;28;20099;-82
2022/03/03 00:26:22;;;;;;;65.72;21.73;;;-1.30;99.90;;;;;;5022376;28;20022;-83
2022/03/03 00:28:48;;;;;;;65.15;22.52;;;-1.30;99.90;;;;;;5007912;28;20470;-83
2022/03/03 00:31:14;;;;;;;59.55;20.48;;;-1.40;99.90;;;;;;5028797;28;20037;-76
2022/03/03 00:33:40;;;;;;;59.60;21.60;;;-1.40;99.90;;;;;;5013073;28;20467;-82
2022/03/03 00:36:05;;;;;;;56.05;21.10;;;-1.50;99.90;;;;;;5018960;28;20108;-78
2022/03/03 00:38:31;;;;;;;57.65;20.33;;;-1.40;99.90;;;;;;5027719;28;20393;-81
2022/03/03 00:40:57;;;;;;;57.92;20.70;;;-1.50;99.90;;;;;;5020279;28;20045;-80
2022/03/03 00:43:22;;;;;;;53.28;19.85;;;-1.60;99.90;;;;;;5022424;28;20030;-81
2022/03/03 00:45:48;;;;;;;53.38;20.52;;;-1.60;99.90;;;;;;5018672;28;20100;-81
2022/03/03 00:48:14;;;;;;;55.88;20.25;;;-1.70;99.90;;;;;;5016768;28;20033;-80
2022/03/03 00:50:40;;;;;;;60.08;22.00;;;-1.70;99.90;;;;;;5029001;28;20034;-80
2022/03/03 00:53:05;;;;;;;56.35;19.70;;;-1.70;99.90;;;;;;5030996;28;20042;-79
2022/03/03 00:55:31;;;;;;;55.35;19.85;;;-1.70;99.90;;;;;;5029404;28;20052;-80
2022/03/03 00:57:57;;;;;;;49.65;19.00;;;-1.80;99.90;;;;;;5021594;28;20042;-79
2022/03/03 01:00:22;;;;;;;50.75;20.20;;;-1.80;99.90;;;;;;5019415;28;20108;-80
2022/03/03 01:02:49;;;;;;;59.92;20.20;;;-1.80;99.90;;;;;;5019657;28;20037;-81
2022/03/03 01:05:15;;;;;;;52.50;19.95;;;-1.70;99.90;;;;;;5031992;28;20017;-79
2022/03/03 01:07:42;;;;;;;47.25;18.27;;;-1.70;99.90;;;;;;5029893;28;20080;-79
2022/03/03 01:10:09;;;;;;;40.20;17.05;;;-1.70;99.90;;;;;;5029095;28;20022;-81
2022/03/03 01:12:35;;;;;;;49.08;17.92;;;-1.80;99.90;;;;;;5021713;28;20479;-80
2022/03/03 01:15:05;;;;;;;49.88;18.45;;;-1.80;99.90;;;;;;5013359;28;20065;-80
2022/03/03 01:17:31;;;;;;;49.83;17.55;;;-1.80;99.90;;;;;;5026148;28;20033;-79
2022/03/03 01:19:57;;;;;;;48.80;17.88;;;-1.90;99.90;;;;;;5014784;28;20037;-79
2022/03/03 01:22:23;;;;;;;54.63;18.50;;;-2.00;99.90;;;;;;5015378;28;20482;-78
2022/03/03 01:24:49;;;;;;;50.65;18.25;;;-2.00;99.90;;;;;;5059017;28;20120;-79
2022/03/03 01:27:14;;;;;;;51.50;19.20;;;-2.00;99.90;;;;;;5015037;28;20175;-79
2022/03/03 01:29:40;;;;;;;57.42;19.85;;;-2.00;99.90;;;;;;5029851;28;20021;-76
2022/03/03 01:32:07;;;;;;;54.67;17.63;;;-2.00;99.90;;;;;;5018634;28;20038;-80
2022/03/03 01:34:34;;;;;;;55.45;21.15;;;-2.00;99.90;;;;;;5011212;28;20062;-80
2022/03/03 01:36:59;;;;;;;54.83;21.55;;;-2.10;99.90;;;;;;5012242;28;20038;-79
2022/03/03 01:39:25;;;;;;;52.63;18.88;;;-2.00;99.90;;;;;;5011951;28;20148;-79
2022/03/03 01:41:51;;;;;;;58.22;20.20;;;-2.00;99.90;;;;;;5018971;28;20489;-81
2022/03/03 01:44:17;;;;;;;48.75;19.45;;;-2.00;99.90;;;;;;5017068;28;20025;-80
2022/03/03 01:46:54;;;;;;;55.38;19.75;;;-2.10;99.90;;;;;;5022089;28;20091;-79
2022/03/03 01:49:21;;;;;;;46.85;17.40;;;-2.10;99.90;;;;;;5011415;28;20022;-75
2022/03/03 01:51:47;;;;;;;55.05;18.83;;;-2.10;99.90;;;;;;5011349;28;20042;-80
2022/03/03 01:54:13;;;;;;;49.10;18.17;;;-2.10;99.90;;;;;;5012696;28;20045;-79
2022/03/03 01:56:40;;;;;;;49.78;18.73;;;-2.10;99.90;;;;;;5024115;28;20174;-77
2022/03/03 01:59:06;;;;;;;57.33;20.13;;;-2.10;99.90;;;;;;5018057;28;20045;-80
2022/03/03 02:01:32;;;;;;;58.00;18.80;;;-2.10;99.90;;;;;;5011921;28;20033;-80
2022/03/03 02:03:58;;;;;;;49.75;18.80;;;-2.10;99.90;;;;;;5011323;28;20038;-78
2022/03/03 02:06:25;;;;;;;48.92;17.88;;;-2.10;99.90;;;;;;5010243;28;20030;-74
2022/03/03 02:08:53;;;;;;;47.85;18.30;;;-2.10;99.90;;;;;;5028947;28;20489;-78
2022/03/03 02:11:20;;;;;;;53.70;19.27;;;-2.20;99.90;;;;;;5028956;28;20045;-80
2022/03/03 02:13:46;;;;;;;52.88;18.73;;;-2.30;99.90;;;;;;5025650;28;20044;-80
2022/03/03 02:16:12;;;;;;;51.53;19.00;;;-2.20;99.90;;;;;;5029058;28;20041;-79
2022/03/03 02:18:42;;;;;;;51.22;18.58;;;-2.20;99.90;;;;;;5014578;28;20097;-79
2022/03/03 02:21:15;;;;;;;52.42;17.95;;;-2.30;99.90;;;;;;5013698;28;20068;-79
2022/03/03 02:23:41;;;;;;;50.45;18.38;;;-2.40;99.90;;;;;;5030192;28;20061;-79
2022/03/03 02:26:11;;;;;;;50.08;18.15;;;-2.40;99.90;;;;;;5017057;28;20030;-79
2022/03/03 02:28:39;;;;;;;53.03;18.80;;;-2.40;99.90;;;;;;5025988;28;20033;-79
2022/03/03 02:31:05;;;;;;;51.97;17.80;;;-2.50;99.90;;;;;;5022426;28;20029;-80
2022/03/03 02:33:30;;;;;;;53.28;18.45;;;-2.50;99.90;;;;;;5029971;28;20091;-79
2022/03/03 02:35:57;;;;;;;52.83;17.60;;;-2.50;99.90;;;;;;5018620;28;20045;-80
2022/03/03 02:38:23;;;;;;;55.90;19.33;;;-2.60;99.90;;;;;;5016544;28;20441;-74
2022/03/03 02:40:48;;;;;;;50.72;20.30;;;-2.60;99.90;;;;;;5011194;28;20036;-80
2022/03/03 02:43:14;;;;;;;57.92;20.10;;;-2.60;99.90;;;;;;5010505;28;20041;-80
2022/03/03 02:45:40;;;;;;;52.53;18.95;;;-2.60;99.90;;;;;;5025445;28;20740;-79
2022/03/03 02:48:05;;;;;;;53.92;18.70;;;-2.60;99.90;;;;;;5028887;28;20038;-78
2022/03/03 02:50:31;;;;;;;49.50;19.25;;;-2.60;99.90;;;;;;5026520;28;20072;-80
2022/03/03 02:53:01;;;;;;;53.97;18.33;;;-2.60;99.90;;;;;;5017912;28;20454;-79
2022/03/03 02:55:28;;;;;;;50.22;18.50;;;-2.60;99.90;;;;;;5022179;28;20045;-75
2022/03/03 02:57:53;;;;;;;48.40;17.42;;;-2.60;99.90;;;;;;5029265;28;20680;-78
2022/03/03 03:00:24;;;;;;;50.97;18.00;;;-2.60;99.90;;;;;;5043407;28;20037;-78
2022/03/03 03:02:50;;;;;;;51.30;19.23;;;-2.60;99.90;;;;;;5026460;28;20025;-79
2022/03/03 03:05:16;;;;;;;51.05;17.45;;;-2.60;99.90;;;;;;5018983;28;20034;-79
2022/03/03 03:07:42;;;;;;;54.42;17.90;;;-2.70;99.90;;;;;;5009770;28;20033;-79
2022/03/03 03:10:08;;;;;;;47.72;17.35;;;-2.70;99.90;;;;;;5012396;28;20108;-79
2022/03/03 03:12:33;;;;;;;45.03;16.65;;;-2.70;99.90;;;;;;5029044;28;20112;-80
2022/03/03 03:14:59;;;;;;;52.28;18.63;;;-2.70;99.90;;;;;;5028033;28;20060;-78
2022/03/03 03:17:25;;;;;;;50.88;18.15;;;-2.70;99.90;;;;;;5015480;28;20025;-73
2022/03/03 03:19:50;;;;;;;54.40;19.50;;;-2.70;99.90;;;;;;5010085;28;20041;-77
2022/03/03 03:22:16;;;;;;;57.30;19.88;;;-2.90;99.90;;;;;;5017891;28;20443;-78
2022/03/03 03:24:42;;;;;;;56.28;19.70;;;-2.90;99.90;;;;;;5027511;28;20103;-79
2022/03/03 03:27:07;;;;;;;52.78;18.80;;;-2.90;99.90;;;;;;5010079;28;20026;-79
2022/03/03 03:29:33;;;;;;;61.15;19.92;;;-3.00;99.90;;;;;;5011438;28;20038;-79
2022/03/03 03:31:59;;;;;;;54.22;19.20;;;-3.10;99.90;;;;;;5026672;28;20065;-76
2022/03/03 03:34:24;;;;;;;57.13;17.70;;;-3.10;99.90;;;;;;5009846;28;20042;-78
2022/03/03 03:36:50;;;;;;;53.90;18.27;;;-3.00;99.90;;;;;;5021309;28;20501;-79
2022/03/03 03:39:16;;;;;;;55.80;19.90;;;-3.00;99.90;;;;;;5009456;28;20026;-77
2022/03/03 03:41:43;;;;;;;52.15;18.17;;;-3.00;99.90;;;;;;5022590;28;20048;-78
2022/03/03 03:44:09;;;;;;;52.45;17.77;;;-2.90;99.90;;;;;;5029358;28;20083;-78
2022/03/03 03:46:35;;;;;;;45.50;17.13;;;-3.00;99.90;;;;;;5028572;28;20025;-79
2022/03/03 03:49:01;;;;;;;53.08;18.35;;;-3.00;99.90;;;;;;5028995;28;20029;-79
2022/03/03 03:51:27;;;;;;;55.60;18.65;;;-3.00;99.90;;;;;;5027244;28;20410;-74
2022/03/03 03:53:52;;;;;;;57.17;17.60;;;-3.00;99.90;;;;;;5027924;28;20032;-80
2022/03/03 03:56:18;;;;;;;51.40;18.23;;;-3.00;99.90;;;;;;5027766;28;20033;-79
2022/03/03 03:58:44;;;;;;;53.80;19.55;;;-3.00;99.90;;;;;;5023086;28;20145;-79
2022/03/03 04:01:09;;;;;;;56.38;19.30;;;-3.00;99.90;;;;;;5014812;28;20025;-79
2022/03/03 04:03:35;;;;;;;56.72;19.45;;;-3.10;99.90;;;;;;5022999;28;20044;-78
2022/03/03 04:06:01;;;;;;;53.65;19.23;;;-3.10;99.90;;;;;;5023691;28;20107;-78
2022/03/03 04:08:26;;;;;;;52.63;18.83;;;-3.10;99.90;;;;;;5032392;28;20070;-79
2022/03/03 04:10:52;;;;;;;52.63;19.17;;;-3.10;99.90;;;;;;5037355;28;20044;-79
2022/03/03 04:13:18;;;;;;;53.72;18.70;;;-3.20;99.90;;;;;;5024348;28;20092;-79
2022/03/03 04:15:43;;;;;;;56.75;18.88;;;-3.20;99.90;;;;;;5018710;28;20038;-78
2022/03/03 04:18:10;;;;;;;58.40;19.48;;;-3.30;99.90;;;;;;5025815;28;20057;-78
2022/03/03 04:20:36;;;;;;;51.92;18.77;;;-3.30;99.90;;;;;;5027810;28;20025;-79
2022/03/03 04:23:02;;;;;;;52.50;19.13;;;-3.30;99.90;;;;;;5028460;28;20520;-78
2022/03/03 04:25:29;;;;;;;56.65;18.67;;;-3.40;99.90;;;;;;5025393;28;20060;-77
2022/03/03 04:27:54;;;;;;;55.25;18.02;;;-3.40;99.90;;;;;;5029442;28;20029;-79
2022/03/03 04:30:20;;;;;;;54.95;19.30;;;-3.40;99.90;;;;;;5022882;28;20057;-79
2022/03/03 04:32:46;;;;;;;49.20;17.95;;;-3.40;99.90;;;;;;5011556;28;20076;-76
2022/03/03 04:35:11;;;;;;;53.33;17.42;;;-3.40;99.90;;;;;;5021734;28;20033;-79
2022/03/03 04:37:38;;;;;;;51.08;19.15;;;-3.40;99.90;;;;;;5026316;28;20087;-79
2022/03/03 04:40:05;;;;;;;53.25;18.73;;;-3.40;99.90;;;;;;5019569;28;20616;-79
2022/03/03 04:42:31;;;;;;;55.00;18.58;;;-3.40;99.90;;;;;;5008215;28;20037;-74
2022/03/03 04:44:57;;;;;;;55.38;19.30;;;-3.40;99.90;;;;;;5008282;28;20104;-79
2022/03/03 04:47:22;;;;;;;53.33;17.75;;;-3.40;99.90;;;;;;5008566;28;20030;-79
2022/03/03 04:49:48;;;;;;;53.15;19.20;;;-3.40;99.90;;;;;;5008450;28;20037;-79
2022/03/03 04:52:14;;;;;;;51.15;19.10;;;-3.40;99.90;;;;;;5010665;28;20050;-77
2022/03/03 04:54:39;;;;;;;60.95;22.25;;;-3.40;99.90;;;;;;5006611;28;20398;-79
2022/03/03 04:57:05;;;;;;;61.88;19.92;;;-3.40;99.90;;;;;;5009679;28;20049;-78
2022/03/03 04:59:31;;;;;;;63.38;20.48;;;-3.50;99.90;;;;;;5022959;28;20029;-77
2022/03/03 05:01:56;;;;;;;56.22;20.02;;;-3.60;99.90;;;;;;5041703;28;20037;-79
2022/03/03 05:04:22;;;;;;;66.05;20.27;;;-3.60;99.90;;;;;;5038878;28;20033;-80
2022/03/03 05:06:48;;;;;;;54.22;19.42;;;-3.60;99.90;;;;;;5037376;28;20379;-80
2022/03/03 05:09:14;;;;;;;53.92;19.50;;;-3.60;99.90;;;;;;5040696;28;20033;-76
2022/03/03 05:11:40;;;;;;;55.63;18.88;;;-3.60;99.90;;;;;;5040214;28;20360;-79
2022/03/03 05:14:06;;;;;;;52.40;18.35;;;-3.60;99.90;;;;;;5024655;28;20041;-78
2022/03/03 05:16:34;;;;;;;54.20;17.67;;;-3.70;99.90;;;;;;5011284;28;20034;-75
2022/03/03 05:19:00;;;;;;;48.80;17.45;;;-3.70;99.90;;;;;;5034745;28;20036;-75
2022/03/03 05:21:26;;;;;;;53.13;19.23;;;-3.70;99.90;;;;;;5042390;28;20425;-75
2022/03/03 05:23:53;;;;;;;57.17;21.27;;;-3.70;99.90;;;;;;5022160;28;20501;-75
2022/03/03 05:26:18;;;;;;;55.35;20.15;;;-3.70;99.90;;;;;;5013478;28;20033;-74
2022/03/03 05:28:44;;;;;;;57.67;20.17;;;-3.60;99.90;;;;;;5024764;28;20034;-75
2022/03/03 05:31:10;;;;;;;56.28;18.92;;;-3.70;99.90;;;;;;5016115;28;20040;-77
2022/03/03 05:33:36;;;;;;;57.20;18.58;;;-3.70;99.90;;;;;;5030425;28;20036;-70
2022/03/03 05:36:07;;;;;;;55.72;19.30;;;-3.80;99.90;;;;;;5029952;28;20045;-76
2022/03/03 05:38:35;;;;;;;53.05;19.02;;;-3.80;99.90;;;;;;5031451;28;20022;-77
2022/03/03 05:41:02;;;;;;;53.55;18.98;;;-3.80;99.90;;;;;;5030487;28;20029;-76
2022/03/03 05:43:28;;;;;;;56.28;18.05;;;-3.80;99.90;;;;;;5058418;28;20064;-78
2022/03/03 05:45:55;;;;;;;55.70;18.98;;;-3.90;99.90;;;;;;5018291;28;20237;-76
2022/03/03 05:48:22;;;;;;;48.05;17.85;;;-3.80;99.90;;;;;;5011374;28;20151;-79
2022/03/03 05:50:49;;;;;;;59.17;18.98;;;-3.90;99.90;;;;;;5008786;28;20389;-78
2022/03/03 05:53:16;;;;;;;59.88;19.08;;;-3.90;99.90;;;;;;5011380;28;20041;-81
2022/03/03 05:55:47;;;;;;;53.28;18.52;;;-3.90;99.90;;;;;;5017218;28;20025;-74
2022/03/03 05:58:19;;;;;;;54.92;19.83;;;-3.90;99.90;;;;;;5021706;28;20064;-76
2022/03/03 06:00:48;;;;;;;60.90;18.90;;;-4.00;99.90;;;;;;5019440;28;20474;-77
2022/03/03 06:03:19;;;;;;;50.00;18.90;;;-4.00;99.90;;;;;;5026828;28;20729;-77
2022/03/03 06:05:52;;;;;;;59.88;19.85;;;-3.90;99.90;;;;;;5023323;28;20037;-76
2022/03/03 06:08:30;;;;;;;59.83;20.40;;;-3.90;99.90;;;;;;5013412;28;20223;-76
2022/03/03 06:11:01;;;;;;;54.53;19.75;;;-4.00;99.90;;;;;;5029977;28;20037;-74
2022/03/03 06:13:31;;;;;;;49.13;18.83;;;-4.00;99.90;;;;;;5027800;28;20025;-74
2022/03/03 06:15:57;;;;;;;59.53;19.52;;;-4.10;99.90;;;;;;5042288;28;20137;-73
2022/03/03 06:18:32;;;;;;;55.08;18.85;;;-4.00;99.90;;;;;;5020244;28;20113;-76
2022/03/03 06:20:59;;;;;;;50.00;18.75;;;-4.00;99.90;;;;;;5026063;28;20053;-79
2022/03/03 06:23:25;;;;;;;55.38;19.27;;;-3.90;99.90;;;;;;5021996;28;20139;-79
2022/03/03 06:26:00;;;;;;;51.55;19.65;;;-3.90;99.90;;;;;;5024601;28;20585;-75
2022/03/03 06:28:28;;;;;;;53.08;18.40;;;-3.80;99.90;;;;;;5025481;28;20112;-73
2022/03/03 06:30:54;;;;;;;54.45;19.23;;;-3.70;99.90;;;;;;5023969;28;20127;-73
2022/03/03 06:33:20;;;;;;;50.05;19.23;;;-3.70;99.90;;;;;;5026547;28;20116;-73
2022/03/03 06:35:45;;;;;;;58.42;19.83;;;-3.60;99.90;;;;;;5027763;28;20030;-72
2022/03/03 06:38:11;;;;;;;60.90;20.35;;;-3.50;99.90;;;;;;5016125;28;20030;-73
2022/03/03 06:40:37;;;;;;;58.58;19.60;;;-3.50;99.90;;;;;;5021862;28;20040;-72
2022/03/03 06:43:02;;;;;;;58.63;19.00;;;-3.50;99.90;;;;;;5023913;28;20042;-73
2022/03/03 06:45:30;;;;;;;52.50;19.20;;;-3.60;99.90;;;;;;5028426;28;20430;-72
2022/03/03 06:47:57;;;;;;;55.65;18.55;;;-3.60;99.90;;;;;;5018933;28;20037;-78
2022/03/03 06:50:23;;;;;;;59.05;20.42;;;-3.50;99.90;;;;;;5013884;28;20105;-78
2022/03/03 06:52:51;;;;;;;59.58;19.75;;;-3.30;99.90;;;;;;5023214;28;20149;-76
2022/03/03 06:55:22;;;;;;;58.17;19.65;;;-3.30;99.90;;;;;;5027864;28;20799;-77
2022/03/03 06:57:54;;;;;;;57.78;18.92;;;-3.20;99.90;;;;;;5025070;28;20044;-77
2022/03/03 07:00:22;;;;;;;79.95;25.70;;;-3.10;99.90;;;;;;5024662;28;20098;-76
2022/03/03 07:02:48;;;;;;;95.72;31.58;;;-2.90;99.90;;;;;;5031368;28;20037;-75
2022/03/03 07:05:17;;;;;;;67.05;26.40;;;-2.80;99.90;;;;;;5020941;28;20036;-73
2022/03/03 07:07:45;;;;;;;60.03;22.75;;;-2.70;99.90;;;;;;5030374;28;20029;-72
2022/03/03 07:10:13;;;;;;;51.20;17.90;;;-2.70;99.90;;;;;;5019722;28;20510;-75
2022/03/03 07:12:40;;;;;;;50.58;18.45;;;-2.80;99.90;;;;;;5035586;28;20037;-74
2022/03/03 07:15:06;;;;;;;69.13;22.55;;;-2.90;99.90;;;;;;5030339;28;20096;-76
2022/03/03 07:17:41;;;;;;;58.83;20.85;;;-3.00;99.90;;;;;;5032199;28;20502;-79
2022/03/03 07:20:10;;;;;;;61.72;22.48;;;-3.00;99.90;;;;;;5027152;28;20105;-78
2022/03/03 07:22:42;;;;;;;64.13;23.05;;;-2.90;99.90;;;;;;5027033;28;20059;-75
2022/03/03 07:25:13;;;;;;;61.45;21.05;;;-2.80;99.90;;;;;;5020352;28;20041;-78
2022/03/03 07:27:44;;;;;;;50.08;18.63;;;-2.70;99.90;;;;;;5024350;28;20029;-72
2022/03/03 07:30:15;;;;;;;57.28;20.08;;;-2.60;99.90;;;;;;5056712;28;20072;-76
2022/03/03 07:33:06;;;;;;;57.65;21.20;;;-2.50;99.90;;;;;;5029178;28;20103;-71
2022/03/03 07:35:34;;;;;;;53.25;19.95;;;-2.30;99.90;;;;;;5024308;28;20057;-77
2022/03/03 07:38:07;;;;;;;53.75;19.55;;;-2.30;99.90;;;;;;5025117;28;20544;-78
2022/03/03 07:40:33;;;;;;;53.88;19.25;;;-2.10;99.90;;;;;;5056506;28;20033;-77
2022/03/03 07:43:00;;;;;;;53.10;19.15;;;-2.00;99.90;;;;;;5026763;28;20112;-75
2022/03/03 07:45:26;;;;;;;49.47;18.33;;;-1.80;99.90;;;;;;5027043;28;20385;-75
2022/03/03 07:47:55;;;;;;;58.80;25.17;;;-1.60;99.90;;;;;;5024920;28;21792;-76
2022/03/03 07:50:21;;;;;;;62.72;19.20;;;-1.40;99.90;;;;;;5015773;28;20110;-77
2022/03/03 07:52:49;;;;;;;56.65;20.08;;;-1.20;99.90;;;;;;5014733;28;20046;-77
2022/03/03 07:55:15;;;;;;;50.83;18.70;;;-1.00;99.90;;;;;;5017481;28;20140;-73
2022/03/03 07:57:46;;;;;;;62.38;21.20;;;-0.90;99.90;;;;;;5021640;28;20081;-75
2022/03/03 08:00:15;;;;;;;48.38;19.40;;;-0.70;99.90;;;;;;5021879;28;20134;-76
2022/03/03 08:02:43;;;;;;;51.60;17.80;;;-0.50;99.90;;;;;;5029497;28;20037;-74
2022/03/03 08:05:09;;;;;;;55.90;20.67;;;-0.30;99.90;;;;;;5015841;28;20148;-78
2022/03/03 08:07:44;;;;;;;54.30;22.48;;;-0.10;99.90;;;;;;5028690;28;20462;-75
2022/03/03 08:10:14;;;;;;;47.80;18.42;;;0.20;99.90;;;;;;5021789;28;20485;-75
2022/03/03 08:12:42;;;;;;;47.03;18.53;;;0.40;99.90;;;;;;5045342;28;20038;-75
2022/03/03 08:15:10;;;;;;;44.17;17.80;;;0.70;99.90;;;;;;5019425;28;20311;-75
2022/03/03 08:17:36;;;;;;;54.47;20.27;;;1.00;99.90;;;;;;5011687;28;20033;-74
2022/03/03 08:20:06;;;;;;;48.50;20.45;;;1.30;99.90;;;;;;5020291;28;20044;-73
2022/03/03 08:22:32;;;;;;;54.05;20.42;;;1.50;99.90;;;;;;5007167;28;20475;-72
2022/03/03 08:24:58;;;;;;;51.55;20.58;;;1.60;99.90;;;;;;5024071;28;20431;-75
2022/03/03 08:27:25;;;;;;;59.75;22.90;;;1.70;99.90;;;;;;5011457;28;20060;-72
2022/03/03 08:29:52;;;;;;;55.35;21.58;;;1.80;99.90;;;;;;5029573;28;20681;-75
2022/03/03 08:32:20;;;;;;;67.90;23.80;;;2.00;99.90;;;;;;5007279;28;20049;-73
2022/03/03 08:34:46;;;;;;;54.60;21.85;;;2.20;99.90;;;;;;5026129;28;20087;-73
2022/03/03 08:37:29;;;;;;;61.25;23.27;;;2.40;99.90;;;;;;5026273;28;20033;-70
2022/03/03 08:39:57;;;;;;;52.53;21.15;;;2.50;99.90;;;;;;5026055;28;20047;-71
2022/03/03 08:42:27;;;;;;;59.67;22.73;;;2.70;99.90;;;;;;5026691;28;20026;-73
2022/03/03 08:44:58;;;;;;;62.50;26.25;;;2.90;99.90;;;;;;5018865;28;20022;-70
2022/03/03 08:47:24;;;;;;;60.22;23.45;;;3.10;99.90;;;;;;5017456;28;20043;-72
2022/03/03 08:50:16;;;;;;;52.33;21.80;;;3.30;99.90;;;;;;5020302;28;20021;-68
2022/03/03 08:52:43;;;;;;;59.45;20.98;;;3.60;99.90;;;;;;5007893;28;20054;-72
2022/03/03 08:55:12;;;;;;;46.88;19.85;;;3.70;99.90;;;;;;5023904;28;20110;-71
2022/03/03 08:57:38;;;;;;;49.65;19.23;;;3.80;99.90;;;;;;5031776;28;20351;-70
2022/03/03 09:00:08;;;;;;;52.55;20.58;;;4.00;99.90;;;;;;5025730;28;20041;-71
2022/03/03 09:02:34;;;;;;;41.92;15.55;;;4.10;99.90;;;;;;5024642;28;20041;-71
2022/03/03 09:05:00;;;;;;;50.45;19.15;;;4.30;99.90;;;;;;5026556;28;20033;-71
2022/03/03 09:07:25;;;;;;;45.97;18.85;;;4.50;99.90;;;;;;5024993;28;20050;-71
2022/03/03 09:09:52;;;;;;;43.67;18.95;;;4.60;99.90;;;;;;5033703;28;20032;-70
2022/03/03 09:12:17;;;;;;;49.33;20.58;;;4.70;99.90;;;;;;5017261;28;20026;-72
2022/03/03 09:14:43;;;;;;;46.30;19.73;;;4.70;99.90;;;;;;5017653;28;20021;-75
2022/03/03 09:17:09;;;;;;;41.05;17.02;;;4.90;99.90;;;;;;5017865;28;20667;-70
2022/03/03 09:19:36;;;;;;;38.00;17.20;;;5.10;99.90;;;;;;5023565;28;20025;-71
2022/03/03 09:22:03;;;;;;;44.60;18.00;;;5.20;99.90;;;;;;5015243;28;20077;-73
2022/03/03 09:24:29;;;;;;;38.40;16.50;;;5.40;99.90;;;;;;5022723;28;20033;-72
2022/03/03 09:26:55;;;;;;;45.08;17.48;;;5.60;99.90;;;;;;5024158;28;20033;-72
2022/03/03 09:29:22;;;;;;;42.45;18.08;;;5.80;99.90;;;;;;5023557;28;20352;-72
2022/03/03 09:31:48;;;;;;;42.85;17.38;;;6.00;99.90;;;;;;5020475;28;20029;-72
2022/03/03 09:34:14;;;;;;;42.83;17.90;;;6.20;99.90;;;;;;5030264;28;20116;-72
2022/03/03 09:36:40;;;;;;;41.05;17.63;;;6.30;99.90;;;;;;5029009;28;20793;-73
2022/03/03 09:39:06;;;;;;;43.83;17.70;;;6.40;99.90;;;;;;5018396;28;20470;-71
2022/03/03 09:41:32;;;;;;;41.28;16.77;;;6.60;99.90;;;;;;5012635;28;20030;-72
2022/03/03 09:43:58;;;;;;;37.67;15.60;;;6.70;99.90;;;;;;5023011;28;20065;-72
2022/03/03 09:46:24;;;;;;;34.90;16.08;;;6.90;99.90;;;;;;5029051;28;20399;-71
2022/03/03 09:48:50;;;;;;;38.58;15.57;;;7.00;99.90;;;;;;5019011;28;20032;-70
2022/03/03 09:51:15;;;;;;;38.25;15.65;;;7.20;97.90;;;;;;5021088;28;20095;-72
2022/03/03 09:53:41;;;;;;;35.35;15.98;;;7.20;98.00;;;;;;5018952;28;20050;-72
2022/03/03 09:56:07;;;;;;;33.25;15.05;;;7.30;96.40;;;;;;5019645;28;20034;-70
2022/03/03 09:58:33;;;;;;;32.83;14.10;;;7.50;96.30;;;;;;5024132;28;20095;-70
2022/03/03 10:00:59;;;;;;;30.23;14.05;;;7.60;91.70;;;;;;5023870;28;20118;-71
2022/03/03 10:03:32;;;;;;;33.00;14.30;;;7.60;87.40;;;;;;5011411;28;20092;-74
2022/03/03 10:06:00;;;;;;;32.45;14.63;;;7.80;87.70;;;;;;5028882;28;20036;-72
2022/03/03 10:08:28;;;;;;;30.88;14.02;;;8.00;81.40;;;;;;5026412;28;20075;-73
2022/03/03 10:11:00;;;;;;;29.33;14.32;;;8.00;78.50;;;;;;5015663;28;20117;-70
2022/03/03 10:13:27;;;;;;;36.13;16.85;;;7.90;79.50;;;;;;5023042;28;20037;-72
2022/03/03 10:15:56;;;;;;;29.38;14.57;;;8.10;78.10;;;;;;5028090;28;20018;-69
2022/03/03 10:18:23;;;;;;;35.83;16.83;;;8.30;77.10;;;;;;5029828;28;20048;-71
2022/03/03 10:20:50;;;;;;;32.80;14.30;;;8.50;81.50;;;;;;5025727;28;20029;-70
2022/03/03 10:23:18;;;;;;;29.33;14.10;;;8.70;74.90;;;;;;5057569;28;20595;-72
2022/03/03 10:25:45;;;;;;;29.25;14.07;;;8.70;71.60;;;;;;5028013;28;20025;-74
2022/03/03 10:28:31;;;;;;;34.08;14.45;;;8.90;71.10;;;;;;5030670;28;20028;-74
2022/03/03 10:31:21;;;;;;;30.40;13.55;;;9.00;69.60;;;;;;5022392;28;20034;-74
2022/03/03 10:33:51;;;;;;;28.83;13.82;;;8.70;67.80;;;;;;5019808;28;20053;-74
2022/03/03 10:36:24;;;;;;;39.00;14.57;;;8.80;68.20;;;;;;5025619;28;20080;-75
2022/03/03 10:38:53;;;;;;;33.92;13.70;;;9.00;67.40;;;;;;5023353;28;20041;-74
2022/03/03 10:41:28;;;;;;;34.95;13.73;;;9.10;67.60;;;;;;5026519;28;20091;-74
2022/03/03 10:43:53;;;;;;;31.85;14.60;;;9.20;64.70;;;;;;5022255;28;20121;-72
2022/03/03 10:46:19;;;;;;;32.60;14.52;;;9.20;67.20;;;;;;5032844;28;20121;-70
2022/03/03 10:48:45;;;;;;;29.98;14.57;;;9.30;67.80;;;;;;5028248;28;20452;-76
2022/03/03 10:51:14;;;;;;;27.58;13.45;;;9.40;69.50;;;;;;5026543;28;20036;-76
2022/03/03 10:53:42;;;;;;;33.22;14.98;;;9.50;65.30;;;;;;5021986;28;20038;-73
2022/03/03 10:56:18;;;;;;;32.00;15.05;;;9.70;65.80;;;;;;5055451;28;20029;-75
2022/03/03 10:58:54;;;;;;;31.52;14.35;;;10.00;66.60;;;;;;5020143;28;20029;-72
2022/03/03 11:01:24;;;;;;;30.88;14.75;;;10.20;62.20;;;;;;5021503;28;20378;-70
2022/03/03 11:03:51;;;;;;;32.45;15.20;;;10.00;62.80;;;;;;5028852;28;20037;-72
2022/03/03 11:06:18;;;;;;;31.00;13.98;;;10.20;65.40;;;;;;5025836;28;20092;-72
2022/03/03 11:08:46;;;;;;;27.50;13.32;;;10.30;62.50;;;;;;5034825;28;20136;-69
2022/03/03 11:11:12;;;;;;;29.48;14.15;;;10.20;62.30;;;;;;5025515;28;20033;-70
2022/03/03 11:13:39;;;;;;;27.38;12.85;;;10.30;62.50;;;;;;5027478;28;20053;-71
2022/03/03 11:16:07;;;;;;;32.83;14.63;;;10.60;61.30;;;;;;5020728;28;20040;-70
2022/03/03 11:18:32;;;;;;;31.70;13.93;;;10.50;56.10;;;;;;5023215;28;20084;-70
2022/03/03 11:20:58;;;;;;;32.65;14.50;;;10.50;56.60;;;;;;5017618;28;20446;-73
2022/03/03 11:23:25;;;;;;;35.85;15.60;;;10.90;58.90;;;;;;5027747;28;20119;-76
2022/03/03 11:25:52;;;;;;;29.00;13.40;;;11.10;57.30;;;;;;5022653;28;20530;-72
2022/03/03 11:28:19;;;;;;;32.25;14.85;;;11.30;58.80;;;;;;5011930;28;20104;-73
2022/03/03 11:30:46;;;;;;;33.03;15.25;;;11.60;58.30;;;;;;5033803;28;20026;-74
2022/03/03 11:33:43;;;;;;;35.25;14.80;;;11.80;57.30;;;;;;5012558;28;20638;-74
2022/03/03 11:36:08;;;;;;;34.00;15.70;;;11.80;53.10;;;;;;5010595;28;20410;-77
2022/03/03 11:38:52;;;;;;;31.17;14.98;;;11.80;54.30;;;;;;5027377;28;20033;-75
2022/03/03 11:41:19;;;;;;;30.40;14.20;;;12.00;54.20;;;;;;5016900;28;20077;-77
2022/03/03 11:43:58;;;;;;;28.95;14.70;;;11.80;52.00;;;;;;5010586;28;20040;-73
2022/03/03 11:46:45;;;;;;;30.48;13.77;;;11.70;51.30;;;;;;5023890;28;20140;-77
2022/03/03 11:49:12;;;;;;;33.40;15.65;;;11.70;52.20;;;;;;5029525;28;20041;-77
2022/03/03 11:51:38;;;;;;;36.00;14.77;;;11.50;52.30;;;;;;5009660;28;20076;-75
2022/03/03 11:54:11;;;;;;;33.33;15.63;;;11.50;53.80;;;;;;5019642;28;20560;-74
2022/03/03 11:57:03;;;;;;;32.47;14.73;;;11.80;53.90;;;;;;5026711;28;20026;-73
2022/03/03 11:59:40;;;;;;;26.23;12.68;;;12.30;51.00;;;;;;5022158;28;20116;-76
2022/03/03 12:02:06;;;;;;;28.92;12.95;;;12.40;50.10;;;;;;5027822;28;20076;-71
2022/03/03 12:04:32;;;;;;;33.45;13.35;;;12.30;49.00;;;;;;5019305;28;20030;-75
2022/03/03 12:06:58;;;;;;;29.23;13.90;;;12.20;49.10;;;;;;5020653;28;20362;-72
2022/03/03 12:09:32;;;;;;;27.50;13.15;;;12.50;49.60;;;;;;5022246;28;20022;-77
2022/03/03 12:12:31;;;;;;;28.77;13.35;;;12.90;47.00;;;;;;5022492;28;20044;-69
2022/03/03 12:15:00;;;;;;;30.88;13.82;;;12.90;47.80;;;;;;5014667;28;20498;-68
2022/03/03 12:17:40;;;;;;;34.28;15.13;;;12.60;48.30;;;;;;5024723;28;20069;-71
2022/03/03 12:20:27;;;;;;;32.53;13.88;;;12.80;46.50;;;;;;5021350;28;20103;-71
2022/03/03 12:23:08;;;;;;;31.52;14.25;;;12.70;46.30;;;;;;5023506;28;20057;-70
2022/03/03 12:25:54;;;;;;;29.55;13.30;;;12.80;47.30;;;;;;5021301;28;20358;-72
2022/03/03 12:28:45;;;;;;;30.63;13.98;;;12.90;47.40;;;;;;5011785;28;20030;-70
2022/03/03 12:31:23;;;;;;;;;;;13.00;46.80;;;;;;5015513;28;20406;-72
2022/03/03 12:33:57;;;;;;;28.35;13.25;;;13.40;47.80;;;;;;5026984;28;20385;-70
2022/03/03 12:36:23;;;;;;;25.00;13.35;;;13.70;46.90;;;;;;5026804;28;20432;-72